createdAt,value
2023-10-19T00:00:59.113Z,55.10
2023-10-19T00:03:37.275Z,42.00
2023-10-19T00:06:06.635Z,45.30
2023-10-19T00:08:42.580Z,51.80
2023-10-19T00:11:22.804Z,47.80
2023-10-19T00:13:51.667Z,49.30
2023-10-19T00:16:23.682Z,44.50
2023-10-19T00:18:53.660Z,50.40
2023-10-19T00:21:22.318Z,49.80
2023-10-19T00:23:57.278Z,50.90
2023-10-19T00:26:26.912Z,48.10
2023-10-19T00:28:57.242Z,46.60
2023-10-19T00:31:29.653Z,48.40
2023-10-19T00:33:58.132Z,47.30
2023-10-19T00:36:27.367Z,44.70
2023-10-19T00:38:57.533Z,43.20
2023-10-19T00:41:31.045Z,44.40
2023-10-19T00:44:06.518Z,43.90
2023-10-19T00:46:39.703Z,41.30
2023-10-19T00:49:07.978Z,48.50
2023-10-19T00:51:51.693Z,44.00
2023-10-19T01:00:56.353Z,43.80
2023-10-19T01:03:24.364Z,41.50
2023-10-19T01:05:52.033Z,39.80
2023-10-19T01:08:27.684Z,39.60
2023-10-19T01:10:55.566Z,43.80
2023-10-19T01:13:28.578Z,41.10
2023-10-19T01:18:30.662Z,44.90
2023-10-19T01:20:58.588Z,44.90
2023-10-19T01:23:29.156Z,41.70
2023-10-19T01:25:59.964Z,43.60
2023-10-19T01:28:43.237Z,46.30
2023-10-19T01:31:18.902Z,38.40
2023-10-19T01:33:47.353Z,43.60
2023-10-19T01:36:24.251Z,42.70
2023-10-19T01:38:55.828Z,38.10
2023-10-19T01:41:31.753Z,36.30
2023-10-19T01:44:05.739Z,40.40
2023-10-19T01:46:35.448Z,39.10
2023-10-19T01:49:05.014Z,42.00
2023-10-19T01:51:44.656Z,39.90
2023-10-19T01:54:12.616Z,39.10
2023-10-19T01:56:43.522Z,40.60
2023-10-19T01:59:11.258Z,37.50
2023-10-19T02:01:42.457Z,38.00
2023-10-19T02:04:10.957Z,40.40
2023-10-19T02:06:39.988Z,34.30
2023-10-19T02:09:30.025Z,40.20
2023-10-19T02:11:58.640Z,42.20
2023-10-19T02:14:27.835Z,35.70
2023-10-19T02:17:00.647Z,39.20
2023-10-19T02:19:29.356Z,38.80
2023-10-19T02:22:00.664Z,38.00
2023-10-19T02:24:28.334Z,37.50
2023-10-19T02:26:56.984Z,43.10
2023-10-19T02:29:25.581Z,37.40
2023-10-19T02:31:54.705Z,34.40
2023-10-19T02:34:24.194Z,36.30
2023-10-19T02:36:52.071Z,40.70
2023-10-19T02:39:19.688Z,40.20
2023-10-19T02:41:51.124Z,41.40
2023-10-19T02:44:20.252Z,37.40
2023-10-19T02:46:50.244Z,37.50
2023-10-19T02:49:21.900Z,34.10
2023-10-19T02:51:51.143Z,44.50
2023-10-19T02:54:21.176Z,42.30
2023-10-19T02:56:51.105Z,36.80
2023-10-19T02:59:23.696Z,38.40
2023-10-19T03:01:52.969Z,36.10
2023-10-19T03:04:21.536Z,33.20
2023-10-19T03:06:50.551Z,38.50
2023-10-19T03:09:24.836Z,36.80
2023-10-19T03:11:58.102Z,36.70
2023-10-19T03:14:26.671Z,40.70
2023-10-19T03:16:56.700Z,40.20
2023-10-19T03:19:27.684Z,39.50
2023-10-19T03:22:01.368Z,38.70
2023-10-19T03:24:38.164Z,40.60
2023-10-19T03:27:25.239Z,42.60
2023-10-19T03:29:56.725Z,40.80
2023-10-19T03:32:28.321Z,49.50
2023-10-19T03:34:57.636Z,39.10
2023-10-19T03:37:32.498Z,45.10
2023-10-19T03:40:00.423Z,46.30
2023-10-19T03:42:33.784Z,38.30
2023-10-19T03:45:08.768Z,39.30
2023-10-19T03:47:36.856Z,39.00
2023-10-19T03:50:08.473Z,40.20
2023-10-19T03:52:38.832Z,41.70
2023-10-19T03:55:17.593Z,40.70
2023-10-19T03:57:51.871Z,47.20
2023-10-19T04:00:20.538Z,41.30
2023-10-19T04:02:48.611Z,38.70
2023-10-19T04:05:21.760Z,37.50
2023-10-19T04:07:56.078Z,35.30
2023-10-19T04:10:35.975Z,41.90
2023-10-19T04:13:04.234Z,39.60
2023-10-19T04:15:35.325Z,44.30
2023-10-19T04:18:09.980Z,42.60
2023-10-19T04:20:59.331Z,38.30
2023-10-19T04:23:28.374Z,40.70
2023-10-19T04:26:00.051Z,39.50
2023-10-19T04:28:40.327Z,40.10
2023-10-19T04:31:08.452Z,37.20
2023-10-19T04:33:36.160Z,40.40
2023-10-19T04:36:03.815Z,38.00
2023-10-19T04:38:32.527Z,40.80
2023-10-19T04:41:08.496Z,41.50
2023-10-19T04:43:38.228Z,40.20
2023-10-19T04:46:12.748Z,46.30
2023-10-19T04:48:41.270Z,45.10
2023-10-19T04:51:10.780Z,44.70
2023-10-19T04:53:38.907Z,48.00
2023-10-19T04:56:07.979Z,47.30
2023-10-19T04:58:36.391Z,44.60
2023-10-19T05:01:05.086Z,38.30
2023-10-19T05:03:33.718Z,40.00
2023-10-19T05:06:02.694Z,37.60
2023-10-19T05:10:41.089Z,39.70
2023-10-19T05:13:08.008Z,45.60
2023-10-19T05:15:35.081Z,42.60
2023-10-19T05:18:02.852Z,37.70
2023-10-19T05:20:29.553Z,45.00
2023-10-19T05:22:56.211Z,44.50
2023-10-19T05:25:24.160Z,35.40
2023-10-19T05:27:50.781Z,36.80
2023-10-19T05:30:17.652Z,39.20
2023-10-19T05:32:45.852Z,41.40
2023-10-19T05:35:13.842Z,36.40
2023-10-19T05:37:40.430Z,37.80
2023-10-19T05:40:13.560Z,34.80
2023-10-19T05:42:40.530Z,39.40
2023-10-19T05:45:07.764Z,42.30
2023-10-19T05:47:35.428Z,41.90
2023-10-19T05:50:02.095Z,38.80
2023-10-19T05:52:29.953Z,40.10
2023-10-19T05:54:58.002Z,39.10
2023-10-19T05:57:24.685Z,39.90
2023-10-19T05:59:51.343Z,41.00
2023-10-19T06:02:21.262Z,38.30
2023-10-19T06:04:50.441Z,38.40
2023-10-19T06:07:17.078Z,43.90
2023-10-19T06:09:43.675Z,38.20
2023-10-19T06:12:10.388Z,37.70
2023-10-19T06:14:38.261Z,37.70
2023-10-19T06:17:05.302Z,39.00
2023-10-19T06:19:32.021Z,38.40
2023-10-19T06:21:58.880Z,37.80
2023-10-19T06:24:25.593Z,37.70
2023-10-19T06:26:53.366Z,39.40
2023-10-19T06:29:20.161Z,40.90
2023-10-19T06:31:46.808Z,44.50
2023-10-19T06:34:13.530Z,49.50
2023-10-19T06:36:40.244Z,50.60
2023-10-19T06:39:06.870Z,56.60
2023-10-19T06:41:33.560Z,53.00
2023-10-19T06:44:01.730Z,54.50
2023-10-19T06:46:28.627Z,49.00
2023-10-19T06:49:00.486Z,44.10
2023-10-19T06:51:27.208Z,48.70
2023-10-19T06:53:54.076Z,35.50
2023-10-19T06:56:20.734Z,35.80
2023-10-19T06:58:47.520Z,37.00
2023-10-19T07:01:17.125Z,39.70
2023-10-19T07:03:44.761Z,40.90
2023-10-19T07:06:15.160Z,42.70
2023-10-19T07:08:42.296Z,41.90
2023-10-19T07:11:10.006Z,37.80
2023-10-19T07:13:37.055Z,38.90
2023-10-19T07:16:04.834Z,37.20
2023-10-19T07:18:32.023Z,44.70
2023-10-19T07:21:03.827Z,46.70
2023-10-19T07:23:30.476Z,39.20
2023-10-19T07:26:00.208Z,38.30
2023-10-19T07:28:27.221Z,40.60
2023-10-19T07:30:54.015Z,42.80
2023-10-19T07:33:21.700Z,41.10
2023-10-19T07:36:00.418Z,41.00
2023-10-19T07:38:29.093Z,48.80
2023-10-19T07:40:56.028Z,40.80
2023-10-19T07:43:22.878Z,43.10
2023-10-19T07:45:50.748Z,43.10
2023-10-19T07:48:17.534Z,38.30
2023-10-19T07:50:44.166Z,39.90
2023-10-19T07:53:11.121Z,40.50
2023-10-19T07:55:39.542Z,41.00
2023-10-19T07:58:09.117Z,37.10
2023-10-19T08:00:35.946Z,40.00
2023-10-19T08:03:04.803Z,38.70
2023-10-19T08:05:32.236Z,39.00
2023-10-19T08:08:00.819Z,37.60
2023-10-19T08:10:27.700Z,40.20
2023-10-19T08:12:55.848Z,42.50
2023-10-19T08:15:22.529Z,37.40
2023-10-19T08:17:51.469Z,36.50
2023-10-19T08:20:23.651Z,35.90
2023-10-19T08:22:53.506Z,39.70
2023-10-19T08:25:21.375Z,36.80
2023-10-19T08:27:50.280Z,38.50
2023-10-19T08:30:21.384Z,44.60
2023-10-19T08:32:48.747Z,41.40
2023-10-19T08:35:21.093Z,39.60
2023-10-19T08:37:48.614Z,44.80
2023-10-19T08:40:16.142Z,45.40
2023-10-19T08:42:45.849Z,39.20
2023-10-19T08:45:14.155Z,30.10
2023-10-19T08:48:02.753Z,33.20
2023-10-19T08:57:05.630Z,50.70
2023-10-19T08:59:33.558Z,43.50
2023-10-19T09:02:05.363Z,49.60
2023-10-19T09:04:33.909Z,38.50
2023-10-19T09:07:09.531Z,43.80
2023-10-19T09:09:41.172Z,40.20
2023-10-19T09:12:10.364Z,32.20
2023-10-19T09:14:42.482Z,32.00
2023-10-19T09:17:11.897Z,38.70
2023-10-19T09:19:45.653Z,32.80
2023-10-19T09:22:25.464Z,37.60
2023-10-19T09:24:56.948Z,38.50
2023-10-19T09:27:25.197Z,38.30
2023-10-19T09:29:53.104Z,41.90
2023-10-19T09:32:23.090Z,41.40
2023-10-19T09:34:54.017Z,28.60
2023-10-19T09:37:21.910Z,33.50
2023-10-19T09:39:49.900Z,29.80
2023-10-19T09:42:18.125Z,37.80
2023-10-19T09:44:55.985Z,29.90
2023-10-19T09:47:38.944Z,34.70
2023-10-19T09:50:07.963Z,29.00
2023-10-19T09:52:36.141Z,25.00
2023-10-19T09:55:29.107Z,30.70
2023-10-19T10:00:33.241Z,26.30
2023-10-19T10:03:04.001Z,29.00
2023-10-19T10:05:44.476Z,30.20
2023-10-19T10:08:18.452Z,21.50
2023-10-19T10:10:52.288Z,28.70
2023-10-19T10:13:27.403Z,29.60
2023-10-19T10:15:58.678Z,30.00
2023-10-19T10:18:29.251Z,25.60
2023-10-19T10:21:09.601Z,26.30
2023-10-19T10:23:48.738Z,27.30
2023-10-19T10:26:25.571Z,31.50
2023-10-19T10:29:24.881Z,41.10
2023-10-19T10:31:52.995Z,32.30
2023-10-19T10:34:38.810Z,34.90
2023-10-19T10:37:15.241Z,31.10
2023-10-19T10:39:46.276Z,26.60
2023-10-19T10:42:16.122Z,30.60
2023-10-19T10:44:47.132Z,35.60
2023-10-19T10:47:33.260Z,40.50
2023-10-19T10:50:02.436Z,37.30
2023-10-19T10:52:35.783Z,38.40
2023-10-19T10:55:15.755Z,31.00
2023-10-19T10:57:45.251Z,32.80
2023-10-19T11:00:19.979Z,34.60
2023-10-19T11:03:00.960Z,30.40
2023-10-19T11:05:29.239Z,37.70
2023-10-19T11:08:15.440Z,35.50
2023-10-19T11:10:47.727Z,36.70
2023-10-19T11:13:19.177Z,39.30
2023-10-19T11:15:58.671Z,48.00
2023-10-19T11:18:36.825Z,47.40
2023-10-19T11:21:11.524Z,56.40
2023-10-19T11:23:48.100Z,41.80
2023-10-19T11:26:19.935Z,41.70
2023-10-19T11:28:48.812Z,31.70
2023-10-19T11:31:24.774Z,32.20
2023-10-19T11:33:54.705Z,28.20
2023-10-19T11:36:25.060Z,36.50
2023-10-19T11:38:54.362Z,33.70
2023-10-19T11:41:24.548Z,51.40
2023-10-19T11:43:53.341Z,40.30
2023-10-19T11:46:24.420Z,33.70
2023-10-19T11:48:52.459Z,29.00
2023-10-19T11:51:20.644Z,31.90
2023-10-19T11:53:48.533Z,30.50
2023-10-19T11:56:17.900Z,30.80
2023-10-19T11:58:48.764Z,29.20
2023-10-19T12:01:18.679Z,31.80
2023-10-19T12:03:47.675Z,27.00
2023-10-19T12:06:20.933Z,33.50
2023-10-19T12:08:49.347Z,31.50
2023-10-19T12:11:17.946Z,36.10
2023-10-19T12:13:48.495Z,30.90
2023-10-19T12:16:17.812Z,31.10
2023-10-19T12:18:47.783Z,30.90
2023-10-19T12:21:16.044Z,33.40
2023-10-19T12:23:45.631Z,34.60
2023-10-19T12:26:13.929Z,24.80
2023-10-19T12:28:42.937Z,26.00
2023-10-19T12:31:12.325Z,29.10
2023-10-19T12:33:42.935Z,27.20
2023-10-19T12:36:32.725Z,30.00
2023-10-19T12:39:01.335Z,30.40
2023-10-19T12:41:29.785Z,35.40
2023-10-19T12:44:03.301Z,33.90
2023-10-19T12:46:31.394Z,32.40
2023-10-19T12:48:59.609Z,31.70
2023-10-19T12:51:27.729Z,28.80
2023-10-19T12:53:56.508Z,30.70
2023-10-19T12:56:30.296Z,29.80
2023-10-19T12:58:58.438Z,31.40
2023-10-19T13:01:29.636Z,43.70
2023-10-19T13:03:58.092Z,34.80
2023-10-19T13:06:30.945Z,28.20
2023-10-19T13:08:59.167Z,32.00
2023-10-19T13:11:28.675Z,36.70
2023-10-19T13:13:56.963Z,31.40
2023-10-19T13:16:26.265Z,30.50
2023-10-19T13:18:55.276Z,29.10
2023-10-19T13:21:27.322Z,33.00
2023-10-19T13:23:55.143Z,32.50
2023-10-19T13:26:24.601Z,34.60
2023-10-19T13:28:54.235Z,25.90
2023-10-19T13:31:23.409Z,27.80
2023-10-19T13:33:51.421Z,28.80
2023-10-19T13:36:20.665Z,28.20
2023-10-19T13:38:48.830Z,30.00
2023-10-19T13:41:18.472Z,40.60
2023-10-19T13:43:46.675Z,31.00
2023-10-19T13:46:14.707Z,35.90
2023-10-19T13:48:42.761Z,29.90
2023-10-19T13:51:16.920Z,29.60
2023-10-19T13:53:46.715Z,34.10
2023-10-19T13:56:17.749Z,28.70
2023-10-19T13:58:48.391Z,37.10
2023-10-19T14:01:18.308Z,37.90
2023-10-19T14:03:46.677Z,42.10
2023-10-19T14:13:09.762Z,33.50
2023-10-19T14:15:38.416Z,44.50
2023-10-19T14:18:05.947Z,34.10
2023-10-19T14:20:34.583Z,36.70
2023-10-19T14:23:05.694Z,40.00
2023-10-19T14:25:37.273Z,34.00
2023-10-19T14:28:07.306Z,34.90
2023-10-19T14:30:34.698Z,33.90
2023-10-19T14:33:01.588Z,34.90
2023-10-19T14:35:29.162Z,32.40
2023-10-19T14:37:57.920Z,32.20
2023-10-19T14:40:27.055Z,32.20
2023-10-19T14:42:55.794Z,30.60
2023-10-19T14:45:26.413Z,30.90
2023-10-19T14:47:55.774Z,34.50
2023-10-19T14:50:23.275Z,35.90
2023-10-19T14:52:52.614Z,41.90
2023-10-19T14:55:20.732Z,40.20
2023-10-19T14:57:53.931Z,44.90
2023-10-19T15:00:45.317Z,42.20
2023-10-19T15:03:12.156Z,42.00
2023-10-19T15:05:41.372Z,43.80
2023-10-19T15:08:08.689Z,46.70
2023-10-19T15:10:42.748Z,47.00
2023-10-19T15:13:09.561Z,45.60
2023-10-19T15:15:37.183Z,49.70
2023-10-19T15:18:07.525Z,56.60
2023-10-19T15:20:35.760Z,53.80
2023-10-19T15:23:02.623Z,57.50
2023-10-19T15:25:29.403Z,54.70
2023-10-19T15:27:56.136Z,41.80
2023-10-19T15:30:24.936Z,44.20
2023-10-19T15:32:56.427Z,49.20
2023-10-19T15:35:23.913Z,48.50
2023-10-19T15:37:55.150Z,60.00
2023-10-19T15:40:24.227Z,76.90
2023-10-19T15:42:53.757Z,86.80
2023-10-19T15:45:20.533Z,80.40
2023-10-19T15:47:47.361Z,95.50
2023-10-19T15:50:17.709Z,76.90
2023-10-19T15:52:45.257Z,70.60
2023-10-19T15:55:14.539Z,56.80
2023-10-19T15:57:42.323Z,56.50
2023-10-19T16:00:15.671Z,56.60
2023-10-19T16:02:45.410Z,51.50
2023-10-19T16:05:12.204Z,52.50
2023-10-19T16:07:39.111Z,50.40
2023-10-19T16:10:06.711Z,53.00
2023-10-19T16:12:34.198Z,62.10
2023-10-19T16:15:02.487Z,51.80
2023-10-19T16:17:29.250Z,48.70
2023-10-19T16:19:55.970Z,49.90
2023-10-19T16:22:22.535Z,51.10
2023-10-19T16:24:49.107Z,52.80
2023-10-19T16:34:09.169Z,45.90
2023-10-19T16:36:35.819Z,51.80
2023-10-19T16:39:02.533Z,49.90
2023-10-19T16:41:29.156Z,55.60
2023-10-19T16:43:55.700Z,50.70
2023-10-19T16:46:23.819Z,43.20
2023-10-19T16:48:50.368Z,52.20
2023-10-19T16:51:16.945Z,55.50
2023-10-19T16:53:43.501Z,54.60
2023-10-19T16:56:10.174Z,59.50
2023-10-19T16:58:36.736Z,58.80
2023-10-19T17:01:10.030Z,54.70
2023-10-19T17:03:42.657Z,53.00
2023-10-19T17:06:09.189Z,60.70
2023-10-19T17:08:36.461Z,51.80
2023-10-19T17:11:03.158Z,47.50
2023-10-19T17:13:30.916Z,47.40
2023-10-19T17:16:00.543Z,44.10
2023-10-19T17:18:27.964Z,45.10
2023-10-19T17:20:54.517Z,48.10
2023-10-19T17:23:21.233Z,45.10
2023-10-19T17:25:47.918Z,44.10
2023-10-19T17:28:14.817Z,46.60
2023-10-19T17:30:41.965Z,48.50
2023-10-19T17:33:12.238Z,49.10
2023-10-19T17:35:40.299Z,45.80
2023-10-19T17:38:09.006Z,43.60
2023-10-19T17:40:35.700Z,48.30
2023-10-19T17:43:04.456Z,45.60
2023-10-19T17:45:31.102Z,45.00
2023-10-19T17:47:57.887Z,49.90
2023-10-19T17:50:25.963Z,47.30
2023-10-19T17:52:52.744Z,52.40
2023-10-19T17:55:20.927Z,52.00
2023-10-19T17:57:50.750Z,49.70
2023-10-19T18:00:20.564Z,47.50
2023-10-19T18:02:47.575Z,48.00
2023-10-19T18:05:14.917Z,57.10
2023-10-19T18:07:42.141Z,58.60
2023-10-19T18:10:12.342Z,58.70
2023-10-19T18:12:40.130Z,59.20
2023-10-19T18:15:10.814Z,60.30
2023-10-19T18:17:37.478Z,60.00
2023-10-19T18:20:10.927Z,56.10
2023-10-19T18:22:37.659Z,59.60
2023-10-19T18:25:04.876Z,55.50
2023-10-19T18:27:31.727Z,59.20
2023-10-19T18:29:59.506Z,57.30
2023-10-19T18:32:26.508Z,57.90
2023-10-19T18:34:53.215Z,51.40
2023-10-19T18:37:19.885Z,63.40
2023-10-19T18:39:47.375Z,54.40
2023-10-19T18:42:14.268Z,59.80
2023-10-19T18:44:40.763Z,61.90
2023-10-19T18:47:07.504Z,57.40
2023-10-19T18:49:35.242Z,56.60
2023-10-19T18:52:04.322Z,51.70
2023-10-19T19:01:06.845Z,51.80
2023-10-19T19:03:36.014Z,54.30
2023-10-19T19:06:05.714Z,46.40
2023-10-19T19:08:34.887Z,55.00
2023-10-19T19:11:17.660Z,50.20
2023-10-19T19:13:46.239Z,52.70
2023-10-19T19:16:14.744Z,53.30
2023-10-19T19:18:44.211Z,59.60
2023-10-19T19:21:12.434Z,51.20
2023-10-19T19:23:41.971Z,54.30
2023-10-19T19:26:12.397Z,49.90
2023-10-19T19:28:43.922Z,54.10
2023-10-19T19:31:20.617Z,55.10
2023-10-19T19:33:48.897Z,51.10
2023-10-19T19:36:17.488Z,53.30
2023-10-19T19:38:46.847Z,55.50
2023-10-19T19:41:15.425Z,55.10
2023-10-19T19:43:44.880Z,59.90
2023-10-19T19:46:15.515Z,51.00
2023-10-19T19:48:43.543Z,57.80
2023-10-19T19:51:12.245Z,57.30
2023-10-19T19:53:40.270Z,58.60
2023-10-19T19:56:09.510Z,56.70
2023-10-19T19:58:37.776Z,60.80
2023-10-19T20:01:05.710Z,55.40
2023-10-19T20:03:34.731Z,57.30
2023-10-19T20:06:02.661Z,53.80
2023-10-19T20:08:32.347Z,54.40
2023-10-19T20:11:00.332Z,52.00
2023-10-19T20:13:29.424Z,54.50
2023-10-19T20:16:02.421Z,51.90
2023-10-19T20:18:31.031Z,49.90
2023-10-19T20:21:00.139Z,48.80
2023-10-19T20:23:28.478Z,54.00
2023-10-19T20:26:05.379Z,53.30
2023-10-19T20:28:34.619Z,53.00
2023-10-19T20:31:02.518Z,58.20
2023-10-19T20:33:30.479Z,52.90
2023-10-19T20:35:58.894Z,54.20
2023-10-19T20:38:27.668Z,56.70
2023-10-19T20:40:56.386Z,49.70
2023-10-19T20:43:24.508Z,53.10
2023-10-19T20:45:54.256Z,50.80
2023-10-19T20:48:23.273Z,53.50
2023-10-19T20:50:51.257Z,53.20
2023-10-19T20:53:19.296Z,59.90
2023-10-19T20:55:47.801Z,53.10
2023-10-19T20:58:22.819Z,56.80
2023-10-19T21:00:50.865Z,51.60
2023-10-19T21:03:19.150Z,52.40
2023-10-19T21:05:47.311Z,59.10
2023-10-19T21:08:15.419Z,54.90
2023-10-19T21:10:43.261Z,52.70
2023-10-19T21:13:11.829Z,53.20
2023-10-19T21:15:40.662Z,54.40
2023-10-19T21:18:10.477Z,59.10
2023-10-19T21:20:39.121Z,52.50
2023-10-19T21:23:07.836Z,54.00
2023-10-19T21:25:35.897Z,56.80
2023-10-19T21:28:05.409Z,59.60
2023-10-19T21:30:34.019Z,59.80
2023-10-19T21:33:02.745Z,62.90
2023-10-19T21:35:31.967Z,64.80
2023-10-19T21:38:00.008Z,56.20
2023-10-19T21:40:29.994Z,58.40
2023-10-19T21:42:57.871Z,60.00
2023-10-19T21:45:25.821Z,61.30
2023-10-19T21:47:53.736Z,57.20
2023-10-19T21:50:21.811Z,60.70
2023-10-19T21:52:50.207Z,65.50
2023-10-19T21:55:19.288Z,63.20
2023-10-19T21:57:47.564Z,64.30
2023-10-19T22:00:27.028Z,68.00
2023-10-19T22:03:11.208Z,59.80
2023-10-19T22:05:43.543Z,57.90
2023-10-19T22:08:12.298Z,63.60
2023-10-19T22:10:40.477Z,62.00
2023-10-19T22:13:08.342Z,61.50
2023-10-19T22:15:37.301Z,60.80
2023-10-19T22:18:05.629Z,58.00
2023-10-19T22:20:33.797Z,58.40
2023-10-19T22:23:06.122Z,59.60
2023-10-19T22:25:36.876Z,59.10
2023-10-19T22:28:05.728Z,60.20
2023-10-19T22:30:33.899Z,62.10
2023-10-19T22:33:01.872Z,62.70
2023-10-19T22:35:50.715Z,64.70
2023-10-19T22:38:18.660Z,60.60
2023-10-19T22:40:46.656Z,57.30
2023-10-19T22:43:14.520Z,57.40
2023-10-19T22:45:42.626Z,61.30
2023-10-19T22:48:10.914Z,57.10
2023-10-19T22:50:38.866Z,57.60
2023-10-19T22:53:06.786Z,55.70
2023-10-19T22:55:34.802Z,57.20
2023-10-19T22:58:04.173Z,57.40
2023-10-19T23:00:32.164Z,54.90
2023-10-19T23:03:00.243Z,57.80
2023-10-19T23:05:28.615Z,54.50
2023-10-19T23:07:57.344Z,48.60
2023-10-19T23:10:29.884Z,49.00
2023-10-19T23:12:57.806Z,49.00
2023-10-19T23:15:41.507Z,50.90
2023-10-19T23:18:11.889Z,51.80
2023-10-19T23:20:41.061Z,50.50
2023-10-19T23:23:12.562Z,49.50
2023-10-19T23:25:45.497Z,50.80
2023-10-19T23:30:42.813Z,47.90
2023-10-19T23:33:11.382Z,48.60
2023-10-19T23:35:39.913Z,51.50
2023-10-19T23:38:08.685Z,45.60
2023-10-19T23:40:36.766Z,46.70
2023-10-19T23:43:06.563Z,49.50
2023-10-19T23:45:39.444Z,40.80
2023-10-19T23:48:12.098Z,40.90
2023-10-19T23:50:40.298Z,42.10
2023-10-19T23:53:08.398Z,41.40
2023-10-19T23:55:36.319Z,40.20
2023-10-19T23:58:04.437Z,39.10
